Main page
METAR-TAF:

METAR-TAF

Airports :

Al Udeid, Qatar

Al Udeid Air Base

latitude: 25-07N, longitude: 051-18E, elevation: 42 m

Current weather observation

The report was made 39 minutes ago, at 19:56 UTC
Wind 7 kt from the Northwest
Temperature 17°C
Humidity 77%
Pressure 1023 hPa
Visibility: 9000 m
Clear sky
haze

METAR: OTBH 181956Z 32007KT 9000 HZ CLR 17/13 A3022 RMK AO2A SLP235 T01670130

Time: 23:35 (20:35 UTC)

Forecast

The report was made 5 hours and 35 minutes ago, at 15:00 UTC
Forecast valid from 18 at 15 UTC to 19 at 21 UTC
Wind 9 kt from the Northwest
Visibility: 9000 m
Few clouds at a height of 5000 ft
haze
Becoming
from 19 at 08 UTC to 19 at 09 UTC
Wind 9 kt from the Northwest with gusts up to 18 kt
Visibility: 1914 m
Clear sky
haze

TAF: OTBH 181500Z 1815/1921 31009KT 9000 HZ FEW050 QNH3018INS BECMG 1908/1909 34012G18KT 9000 HZ SKC QNH3021INS WND 31009KT AFT 1914 TX22/1909Z TN15/1903Z

Weather observations and forecasts of more than 4000 airports (METAR and TAF reports).

The available stations are represented by yellow and red dots on the map.

Hover mouse over dot to see the name of the station.

Then click to see weather observations and forecasts.

To change the map : click on the green buttons with a black cross to zoom in, on the green button with a dash to zoom out, or on the green arrows for adjacent maps.


METAR-TAF: